createdAt,value
2023-04-05T00:01:28.553Z,98636.13
2023-04-05T00:04:08.330Z,98628.84
2023-04-05T00:06:47.076Z,98627.03
2023-04-05T00:09:17.398Z,98614.75
2023-04-05T00:11:54.798Z,98612.72
2023-04-05T00:17:26.883Z,98627.59
2023-04-05T00:19:57.348Z,98627.03
2023-04-05T00:22:37.579Z,98628.13
2023-04-05T00:25:09.752Z,98626.84
2023-04-05T00:27:43.610Z,98617.22
2023-04-05T00:30:21.254Z,98614.94
2023-04-05T00:32:58.778Z,98592.31
2023-04-05T00:35:33.380Z,98611.41
2023-04-05T00:38:09.515Z,98610.13
2023-04-05T00:40:39.971Z,98607.97
2023-04-05T00:43:10.928Z,98607.94
2023-04-05T00:45:44.121Z,98619.19
2023-04-05T00:48:22.992Z,98610.00
2023-04-05T00:50:56.376Z,98601.31
2023-04-05T00:53:34.588Z,98611.88
2023-04-05T00:56:11.654Z,98617.53
2023-04-05T00:58:42.966Z,98608.34
2023-04-05T01:01:29.794Z,98597.13
2023-04-05T01:04:03.483Z,98599.59
2023-04-05T01:07:16.674Z,98620.16
2023-04-05T01:10:10.229Z,98599.75
2023-04-05T01:12:48.357Z,98610.25
2023-04-05T01:15:20.116Z,98618.63
2023-04-05T01:17:51.769Z,98614.81
2023-04-05T01:20:26.255Z,98611.19
2023-04-05T01:26:54.211Z,98614.06
2023-04-05T01:29:45.355Z,98606.63
2023-04-05T01:33:01.235Z,98612.34
2023-04-05T01:36:02.344Z,98616.63
2023-04-05T01:38:44.385Z,98604.78
2023-04-05T01:41:16.706Z,98612.31
2023-04-05T01:44:02.725Z,98614.81
2023-04-05T01:46:36.392Z,98614.06
2023-04-05T01:49:17.923Z,98618.69
2023-04-05T01:51:51.542Z,98621.16
2023-04-05T01:54:23.066Z,98609.53
2023-04-05T01:57:03.529Z,98608.72
2023-04-05T01:59:35.518Z,98595.16
2023-04-05T02:02:09.282Z,98601.81
2023-04-05T02:04:45.223Z,98602.44
2023-04-05T02:07:17.057Z,98616.97
2023-04-05T02:09:48.129Z,98610.75
2023-04-05T02:12:22.391Z,98581.56
2023-04-05T02:14:59.099Z,98624.31
2023-04-05T02:17:34.438Z,98618.88
2023-04-05T02:20:12.979Z,98625.59
2023-04-05T02:22:48.490Z,98619.25
2023-04-05T02:25:16.898Z,98626.38
2023-04-05T02:27:50.398Z,98623.66
2023-04-05T02:30:29.062Z,98628.72
2023-04-05T02:33:05.520Z,98625.72
2023-04-05T02:35:38.573Z,98629.97
2023-04-05T02:38:10.439Z,98626.25
2023-04-05T02:43:28.323Z,98628.81
2023-04-05T02:45:59.223Z,98625.78
2023-04-05T02:48:33.000Z,98622.88
2023-04-05T02:51:06.610Z,98620.47
2023-04-05T02:53:39.176Z,98627.00
2023-04-05T02:56:28.315Z,98625.78
2023-04-05T02:58:58.873Z,98633.59
2023-04-05T03:01:33.482Z,98616.03
2023-04-05T03:04:10.043Z,98630.53
2023-04-05T03:06:38.638Z,98624.28
2023-04-05T03:09:14.127Z,98623.06
2023-04-05T03:11:43.745Z,98623.03
2023-04-05T03:14:24.064Z,98624.63
2023-04-05T03:17:10.471Z,98634.72
2023-04-05T03:19:42.646Z,98608.94
2023-04-05T03:22:26.690Z,98607.03
2023-04-05T03:24:57.607Z,98620.81
2023-04-05T03:27:37.416Z,98622.50
2023-04-05T03:30:22.251Z,98623.94
2023-04-05T03:33:10.505Z,98629.59
2023-04-05T03:36:02.017Z,98632.28
2023-04-05T03:38:34.709Z,98633.88
2023-04-05T03:41:28.775Z,98630.91
2023-04-05T03:44:08.049Z,98632.66
2023-04-05T03:46:42.683Z,98632.34
2023-04-05T03:52:00.633Z,98650.16
2023-04-05T03:54:30.791Z,98642.13
2023-04-05T03:57:08.842Z,98647.81
2023-04-05T04:02:23.307Z,98645.66
2023-04-05T04:04:54.214Z,98652.00
2023-04-05T04:07:30.439Z,98652.72
2023-04-05T04:09:58.802Z,98650.34
2023-04-05T04:12:36.468Z,98659.16
2023-04-05T04:15:11.232Z,98630.94
2023-04-05T04:18:09.217Z,98653.66
2023-04-05T04:21:19.521Z,98659.75
2023-04-05T04:24:02.114Z,98661.06
2023-04-05T04:26:57.326Z,98635.28
2023-04-05T04:29:58.042Z,98661.75
2023-04-05T04:33:03.901Z,98661.69
2023-04-05T04:36:13.565Z,98662.72
2023-04-05T04:39:30.575Z,98662.91
2023-04-05T04:42:36.657Z,98667.31
2023-04-05T04:45:34.748Z,98671.38
2023-04-05T04:48:23.103Z,98671.00
2023-04-05T04:51:15.537Z,98677.88
2023-04-05T04:53:59.914Z,98677.69
2023-04-05T04:56:35.189Z,98677.16
2023-04-05T04:59:12.844Z,98680.84
2023-04-05T05:01:52.466Z,98676.28
2023-04-05T05:04:24.260Z,98685.69
2023-04-05T05:07:05.198Z,98682.06
2023-04-05T05:09:39.275Z,98667.00
2023-04-05T05:12:16.390Z,98676.69
2023-04-05T05:14:47.370Z,98689.81
2023-04-05T05:17:19.999Z,98694.47
2023-04-05T05:19:51.572Z,98701.22
2023-04-05T05:22:22.070Z,98700.13
2023-04-05T05:24:52.725Z,98703.69
2023-04-05T05:27:23.164Z,98708.13
2023-04-05T05:29:54.479Z,98700.69
2023-04-05T05:32:32.660Z,98701.72
2023-04-05T05:35:03.021Z,98701.03
2023-04-05T05:37:37.949Z,98688.47
2023-04-05T05:40:08.039Z,98706.38
2023-04-05T05:42:44.307Z,98705.22
2023-04-05T05:45:13.377Z,98689.25
2023-04-05T05:47:48.516Z,98710.88
2023-04-05T05:50:22.925Z,98703.63
2023-04-05T05:52:55.897Z,98707.31
2023-04-05T05:55:24.977Z,98709.94
2023-04-05T05:57:59.345Z,98718.31
2023-04-05T06:00:30.316Z,98700.94
2023-04-05T06:03:03.309Z,98713.94
2023-04-05T06:05:33.899Z,98709.09
2023-04-05T06:08:08.267Z,98716.97
2023-04-05T06:10:53.541Z,98709.22
2023-04-05T06:13:24.873Z,98706.22
2023-04-05T06:16:03.295Z,98719.81
2023-04-05T06:18:34.720Z,98692.06
2023-04-05T06:23:55.009Z,98710.69
2023-04-05T06:26:28.772Z,98710.91
2023-04-05T06:29:00.229Z,98691.09
2023-04-05T06:31:35.244Z,98707.72
2023-04-05T06:34:11.772Z,98706.75
2023-04-05T06:36:43.244Z,98708.16
2023-04-05T06:39:23.839Z,98700.78
2023-04-05T06:44:49.193Z,98693.19
2023-04-05T06:47:25.365Z,98703.09
2023-04-05T06:49:54.561Z,98642.91
2023-04-05T06:52:26.836Z,98699.38
2023-04-05T06:55:10.831Z,98700.97
2023-04-05T06:57:42.187Z,98700.97
2023-04-05T07:00:21.569Z,98706.63
2023-04-05T07:02:57.164Z,98695.91
2023-04-05T07:05:33.944Z,98704.13
2023-04-05T07:08:14.267Z,98696.28
2023-04-05T07:10:49.106Z,98696.31
2023-04-05T07:13:26.425Z,98696.06
2023-04-05T07:16:05.879Z,98702.44
2023-04-05T07:18:33.749Z,98692.38
2023-04-05T07:21:17.483Z,98688.63
2023-04-05T07:23:51.801Z,98694.44
2023-04-05T07:29:27.395Z,98681.38
2023-04-05T07:31:57.822Z,98700.34
2023-04-05T07:34:38.239Z,98698.47
2023-04-05T07:37:14.550Z,98702.19
2023-04-05T07:39:49.152Z,98698.47
2023-04-05T07:42:35.075Z,98696.88
2023-04-05T07:45:06.957Z,98695.16
2023-04-05T07:47:40.481Z,98684.84
2023-04-05T07:50:12.050Z,98690.94
2023-04-05T07:52:45.828Z,98688.31
2023-04-05T07:55:25.267Z,98663.38
2023-04-05T07:58:01.037Z,98677.31
2023-04-05T08:00:34.752Z,98682.22
2023-04-05T08:03:05.944Z,98687.94
2023-04-05T08:05:37.288Z,98676.88
2023-04-05T08:08:14.139Z,98673.84
2023-04-05T08:10:45.168Z,98679.28
2023-04-05T08:13:19.063Z,98678.47
2023-04-05T08:15:50.240Z,98665.63
2023-04-05T08:18:24.632Z,98671.16
2023-04-05T08:20:58.101Z,98672.16
2023-04-05T08:23:31.654Z,98666.66
2023-04-05T08:26:08.006Z,98666.94
2023-04-05T08:28:39.305Z,98663.72
2023-04-05T08:34:02.470Z,98658.28
2023-04-05T08:39:20.660Z,98655.53
2023-04-05T08:42:05.733Z,98659.91
2023-04-05T08:44:42.381Z,98655.25
2023-04-05T08:47:28.362Z,98646.97
2023-04-05T08:49:59.525Z,98648.47
2023-04-05T08:55:15.955Z,98642.88
2023-04-05T08:57:51.878Z,98640.75
2023-04-05T09:00:27.437Z,98619.59
2023-04-05T09:03:08.184Z,98636.34
2023-04-05T09:05:40.962Z,98628.91
2023-04-05T09:08:12.322Z,98614.03
2023-04-05T09:10:44.660Z,98629.97
2023-04-05T09:13:16.294Z,98629.16
2023-04-05T09:15:57.410Z,98603.22
2023-04-05T09:18:39.000Z,98629.38
2023-04-05T09:21:10.581Z,98620.28
2023-04-05T09:23:58.686Z,98609.03
2023-04-05T09:26:32.554Z,98609.09
2023-04-05T09:29:04.463Z,98590.00
2023-04-05T09:31:37.751Z,98610.31
2023-04-05T09:34:28.757Z,98599.78
2023-04-05T09:36:59.290Z,98591.97
2023-04-05T09:39:31.762Z,98597.53
2023-04-05T09:42:21.696Z,98597.06
2023-04-05T09:45:07.406Z,98588.63
2023-04-05T09:48:01.579Z,98595.69
2023-04-05T09:53:26.420Z,98590.72
2023-04-05T09:56:03.662Z,98584.56
2023-04-05T09:58:36.080Z,98577.97
2023-04-05T10:01:16.807Z,98570.47
2023-04-05T10:03:54.643Z,98580.31
2023-04-05T10:06:23.766Z,98571.88
2023-04-05T10:09:05.286Z,98564.81
2023-04-05T10:11:41.164Z,98563.03
2023-04-05T10:14:15.583Z,98570.16
2023-04-05T10:17:21.107Z,98561.69
2023-04-05T10:20:23.108Z,98556.00
2023-04-05T10:23:16.831Z,98544.47
2023-04-05T10:26:13.716Z,98550.56
2023-04-05T10:28:50.566Z,98546.47
2023-04-05T10:31:41.446Z,98539.81
2023-04-05T10:34:29.151Z,98535.41
2023-04-05T10:37:13.064Z,98531.00
2023-04-05T10:39:48.951Z,98521.41
2023-04-05T10:42:46.784Z,98528.84
2023-04-05T10:45:24.633Z,98524.88
2023-04-05T10:48:32.611Z,98528.28
2023-04-05T10:51:07.492Z,98525.53
2023-04-05T10:53:38.866Z,98516.53
2023-04-05T10:56:07.367Z,98494.13
2023-04-05T10:58:50.576Z,98495.88
2023-04-05T11:01:23.743Z,98498.97
2023-04-05T11:03:58.182Z,98484.97
2023-04-05T11:06:37.497Z,98501.25
2023-04-05T11:09:24.757Z,98487.88
2023-04-05T11:11:56.284Z,98488.78
2023-04-05T11:14:27.193Z,98500.06
2023-04-05T11:16:58.926Z,98497.53
2023-04-05T11:19:49.894Z,98491.75
2023-04-05T11:22:34.166Z,98489.63
2023-04-05T11:25:05.427Z,98487.03
2023-04-05T11:27:37.595Z,98499.81
2023-04-05T11:30:09.700Z,98482.97
2023-04-05T11:32:46.496Z,98474.13
2023-04-05T11:35:26.321Z,98475.63
2023-04-05T11:38:14.074Z,98468.16
2023-04-05T11:40:45.735Z,98463.75
2023-04-05T11:43:16.887Z,98474.38
2023-04-05T11:45:47.518Z,98467.03
2023-04-05T11:48:18.259Z,98441.63
2023-04-05T11:50:54.082Z,98448.03
2023-04-05T11:53:35.820Z,98460.09
2023-04-05T11:56:18.161Z,98439.00
2023-04-05T11:58:55.745Z,98446.09
2023-04-05T12:01:27.686Z,98438.91
2023-04-05T12:04:03.669Z,98447.91
2023-04-05T12:06:34.386Z,98446.44
2023-04-05T12:09:10.845Z,98436.47
2023-04-05T12:11:41.398Z,98442.94
2023-04-05T12:14:12.691Z,98441.22
2023-04-05T12:16:57.331Z,98431.56
2023-04-05T12:19:31.545Z,98427.66
2023-04-05T12:22:03.095Z,98431.38
2023-04-05T12:24:39.362Z,98426.34
2023-04-05T12:30:19.153Z,98427.00
2023-04-05T12:33:06.265Z,98426.22
2023-04-05T12:35:40.536Z,98422.81
2023-04-05T12:38:13.276Z,98420.44
2023-04-05T12:40:51.566Z,98422.47
2023-04-05T12:43:23.046Z,98426.78
2023-04-05T12:46:15.035Z,98411.09
2023-04-05T12:48:46.224Z,98410.78
2023-04-05T12:51:23.153Z,98407.84
2023-04-05T12:53:56.637Z,98422.66
2023-04-05T12:56:27.229Z,98399.47
2023-04-05T12:58:59.157Z,98400.53
2023-04-05T13:01:33.980Z,98401.13
2023-04-05T13:04:16.570Z,98394.91
2023-04-05T13:06:55.531Z,98392.25
2023-04-05T13:09:26.768Z,98381.31
2023-04-05T13:11:56.052Z,98395.63
2023-04-05T13:14:27.649Z,98391.34
2023-04-05T13:19:47.180Z,98371.56
2023-04-05T13:22:18.190Z,98378.41
2023-04-05T13:24:51.964Z,98375.09
2023-04-05T13:27:32.977Z,98378.09
2023-04-05T13:30:06.973Z,98376.19
2023-04-05T13:32:54.026Z,98381.72
2023-04-05T13:35:30.004Z,98364.28
2023-04-05T13:38:04.298Z,98379.53
2023-04-05T13:40:36.892Z,98363.00
2023-04-05T13:43:07.370Z,98367.91
2023-04-05T13:45:42.185Z,98366.00
2023-04-05T13:48:14.445Z,98353.75
2023-04-05T13:50:46.113Z,98364.28
2023-04-05T13:53:18.069Z,98344.75
2023-04-05T13:55:54.765Z,98362.19
2023-04-05T13:58:27.881Z,98357.31
2023-04-05T14:01:01.378Z,98361.88
2023-04-05T14:03:32.734Z,98358.25
2023-04-05T14:06:03.160Z,98352.50
2023-04-05T14:08:34.724Z,98356.97
2023-04-05T14:11:05.417Z,98361.47
2023-04-05T14:13:50.737Z,98363.03
2023-04-05T14:16:21.277Z,98357.34
2023-04-05T14:18:52.254Z,98342.28
2023-04-05T14:21:36.740Z,98352.72
2023-04-05T14:24:08.376Z,98348.28
2023-04-05T14:29:31.355Z,98347.44
2023-04-05T14:32:07.552Z,98335.81
2023-04-05T14:34:45.353Z,98336.72
2023-04-05T14:37:20.753Z,98334.72
2023-04-05T14:39:54.499Z,98340.50
2023-04-05T14:42:34.054Z,98335.53
2023-04-05T14:45:19.291Z,98343.13
2023-04-05T14:47:50.288Z,98344.03
2023-04-05T14:50:21.524Z,98341.84
2023-04-05T14:53:00.874Z,98341.59
2023-04-05T14:55:34.290Z,98338.44
2023-04-05T14:58:05.847Z,98334.81
2023-04-05T15:00:45.443Z,98347.53
2023-04-05T15:03:16.709Z,98334.38
2023-04-05T15:05:47.682Z,98342.69
2023-04-05T15:11:00.635Z,98298.72
2023-04-05T15:13:36.353Z,98344.28
2023-04-05T15:16:10.893Z,98340.59
2023-04-05T15:18:55.905Z,98339.94
2023-04-05T15:21:36.322Z,98344.47
2023-04-05T15:24:14.814Z,98339.59
2023-04-05T15:27:02.895Z,98344.66
2023-04-05T15:29:47.890Z,98340.88
2023-04-05T15:32:28.348Z,98346.00
2023-04-05T15:35:05.727Z,98349.44
2023-04-05T15:37:39.064Z,98349.25
2023-04-05T15:40:19.346Z,98344.22
2023-04-05T15:42:56.725Z,98349.94
2023-04-05T15:45:39.908Z,98354.06
2023-04-05T15:48:24.838Z,98338.78
2023-04-05T15:51:00.611Z,98347.38
2023-04-05T15:53:40.120Z,98343.47
2023-04-05T15:56:11.521Z,98352.91
2023-04-05T15:58:42.948Z,98340.94
2023-04-05T16:01:13.658Z,98349.50
2023-04-05T16:03:51.154Z,98337.97
2023-04-05T16:06:24.704Z,98354.50
2023-04-05T16:08:53.768Z,98354.09
2023-04-05T16:11:26.553Z,98347.13
2023-04-05T16:14:12.621Z,98353.06
2023-04-05T16:16:53.306Z,98352.84
2023-04-05T16:19:28.347Z,98362.84
2023-04-05T16:22:09.199Z,98363.97
2023-04-05T16:24:43.176Z,98359.53
2023-04-05T16:27:15.373Z,98361.78
2023-04-05T16:29:50.200Z,98363.44
2023-04-05T16:32:23.588Z,98359.44
2023-04-05T16:34:59.731Z,98370.16
2023-04-05T16:37:27.784Z,98370.44
2023-04-05T16:40:05.062Z,98355.59
2023-04-05T16:42:42.016Z,98371.03
2023-04-05T16:45:20.636Z,98364.50
2023-04-05T16:47:49.240Z,98375.03
2023-04-05T16:50:27.019Z,98377.00
2023-04-05T16:52:56.837Z,98376.91
2023-04-05T16:55:32.938Z,98379.44
2023-04-05T16:58:04.411Z,98383.66
2023-04-05T17:00:38.035Z,98379.28
2023-04-05T17:03:07.966Z,98384.41
2023-04-05T17:05:39.423Z,98395.66
2023-04-05T17:11:00.602Z,98372.00
2023-04-05T17:13:29.596Z,98408.38
2023-04-05T17:16:07.496Z,98388.69
2023-04-05T17:18:49.952Z,98412.31
2023-04-05T17:21:31.256Z,98416.06
2023-04-05T17:24:00.382Z,98392.88
2023-04-05T17:26:31.407Z,98421.56
2023-04-05T17:29:07.130Z,98419.53
2023-04-05T17:31:41.117Z,98425.72
2023-04-05T17:34:15.272Z,98429.34
2023-04-05T17:36:55.055Z,98420.69
2023-04-05T17:39:22.928Z,98430.88
2023-04-05T17:41:54.687Z,98440.00
2023-04-05T17:44:42.602Z,98439.53
2023-04-05T17:47:14.358Z,98435.28
2023-04-05T17:49:46.856Z,98451.56
2023-04-05T17:52:18.277Z,98454.25
2023-04-05T17:54:48.154Z,98452.91
2023-04-05T17:57:23.129Z,98453.53
2023-04-05T17:59:57.580Z,98466.22
2023-04-05T18:02:31.885Z,98467.13
2023-04-05T18:05:08.967Z,98473.81
2023-04-05T18:07:49.386Z,98462.44
2023-04-05T18:10:21.301Z,98476.41
2023-04-05T18:12:58.109Z,98488.78
2023-04-05T18:15:28.465Z,98486.97
2023-04-05T18:18:08.365Z,98499.84
2023-04-05T18:20:37.672Z,98496.22
2023-04-05T18:23:11.362Z,98506.06
2023-04-05T18:25:44.759Z,98510.19
2023-04-05T18:28:22.632Z,98510.75
2023-04-05T18:30:54.544Z,98512.75
2023-04-05T18:33:26.062Z,98512.53
2023-04-05T18:36:01.976Z,98521.56
2023-04-05T18:38:33.354Z,98530.63
2023-04-05T18:41:09.663Z,98485.09
2023-04-05T18:43:39.946Z,98527.06
2023-04-05T18:46:10.647Z,98546.84
2023-04-05T18:48:54.371Z,98546.59
2023-04-05T18:51:33.966Z,98547.13
2023-04-05T18:54:12.945Z,98535.34
2023-04-05T18:56:43.272Z,98545.22
2023-04-05T18:59:20.427Z,98558.91
2023-04-05T19:01:51.566Z,98564.06
2023-04-05T19:04:25.527Z,98570.31
2023-04-05T19:06:59.273Z,98571.88
2023-04-05T19:09:29.844Z,98578.09
2023-04-05T19:11:58.792Z,98575.59
2023-04-05T19:14:34.977Z,98572.63
2023-04-05T19:17:03.624Z,98567.63
2023-04-05T19:19:45.319Z,98584.81
2023-04-05T19:22:15.779Z,98588.81
2023-04-05T19:24:57.312Z,98584.59
2023-04-05T19:27:25.036Z,98588.25
2023-04-05T19:29:56.561Z,98588.78
2023-04-05T19:32:26.204Z,98597.97
2023-04-05T19:35:02.698Z,98599.63
2023-04-05T19:37:34.067Z,98579.91
2023-04-05T19:40:08.611Z,98600.31
2023-04-05T19:42:50.234Z,98606.75
2023-04-05T19:45:33.283Z,98609.13
2023-04-05T19:48:11.200Z,98612.34
2023-04-05T19:50:57.312Z,98610.72
2023-04-05T19:53:55.866Z,98618.91
2023-04-05T19:56:38.850Z,98605.78
2023-04-05T19:59:36.200Z,98623.00
2023-04-05T20:02:23.561Z,98631.34
2023-04-05T20:04:54.722Z,98633.47
2023-04-05T20:07:28.400Z,98630.50
2023-04-05T20:10:05.799Z,98634.13
2023-04-05T20:12:37.252Z,98633.25
2023-04-05T20:15:17.978Z,98637.84
2023-04-05T20:17:57.252Z,98639.03
2023-04-05T20:20:39.421Z,98629.41
2023-04-05T20:23:24.524Z,98636.53
2023-04-05T20:25:58.004Z,98625.34
2023-04-05T20:28:39.068Z,98639.72
2023-04-05T20:31:39.119Z,98644.94
2023-04-05T20:34:25.443Z,98644.56
2023-04-05T20:37:04.483Z,98642.34
2023-04-05T20:39:37.672Z,98650.03
2023-04-05T20:42:08.406Z,98652.66
2023-04-05T20:44:47.060Z,98623.16
2023-04-05T20:47:16.274Z,98664.63
2023-04-05T20:49:50.069Z,98645.22
2023-04-05T20:52:19.617Z,98654.81
2023-04-05T20:54:53.611Z,98656.91
2023-04-05T20:57:28.440Z,98631.13
2023-04-05T21:00:02.869Z,98655.00
2023-04-05T21:02:36.547Z,98645.66
2023-04-05T21:05:05.724Z,98665.72
2023-04-05T21:07:49.431Z,98659.09
2023-04-05T21:10:17.258Z,98665.28
2023-04-05T21:12:54.086Z,98667.22
2023-04-05T21:15:31.488Z,98595.16
2023-04-05T21:18:03.207Z,98673.06
2023-04-05T21:20:34.185Z,98671.16
2023-04-05T21:23:14.670Z,98671.09
2023-04-05T21:26:00.941Z,98675.28
2023-04-05T21:28:32.868Z,98678.13
2023-04-05T21:31:03.862Z,98684.22
2023-04-05T21:33:37.357Z,98633.56
2023-04-05T21:36:21.713Z,98687.28
2023-04-05T21:38:55.406Z,98656.94
2023-04-05T21:41:37.375Z,98670.97
2023-04-05T21:44:09.949Z,98679.91
2023-04-05T21:46:39.381Z,98682.50
2023-04-05T21:49:13.040Z,98675.47
2023-04-05T21:51:50.490Z,98676.28
2023-04-05T21:54:22.090Z,98687.09
2023-04-05T21:56:52.762Z,98688.78
2023-04-05T21:59:26.160Z,98688.53
2023-04-05T22:04:41.982Z,98689.91
2023-04-05T22:07:12.799Z,98689.59
2023-04-05T22:09:43.537Z,98679.97
2023-04-05T22:15:02.815Z,98693.75
2023-04-05T22:17:35.960Z,98692.69
2023-04-05T22:20:15.485Z,98681.13
2023-04-05T22:22:45.886Z,98665.28
2023-04-05T22:25:22.314Z,98692.19
2023-04-05T22:27:52.750Z,98692.47
2023-04-05T22:30:28.003Z,98696.44
2023-04-05T22:33:02.641Z,98697.41
2023-04-05T22:35:34.043Z,98705.31
2023-04-05T22:38:05.079Z,98670.00
2023-04-05T22:40:39.572Z,98699.41
2023-04-05T22:43:24.422Z,98698.72
2023-04-05T22:48:40.016Z,98700.75
2023-04-05T22:51:12.423Z,98703.06
2023-04-05T22:53:46.761Z,98701.50
2023-04-05T22:56:18.630Z,98689.19
2023-04-05T22:58:53.467Z,98692.13
2023-04-05T23:04:09.091Z,98693.34
2023-04-05T23:06:45.973Z,98688.56
2023-04-05T23:09:16.997Z,98699.72
2023-04-05T23:11:55.968Z,98691.09
2023-04-05T23:14:30.856Z,98677.03
2023-04-05T23:19:44.523Z,98699.72
2023-04-05T23:25:02.379Z,98700.84
2023-04-05T23:27:33.036Z,98697.03
2023-04-05T23:30:02.958Z,98698.09
2023-04-05T23:32:34.678Z,98698.13
2023-04-05T23:35:06.362Z,98698.09
2023-04-05T23:37:48.130Z,98683.31
2023-04-05T23:40:21.499Z,98699.16
2023-04-05T23:42:58.468Z,98699.16
2023-04-05T23:45:29.112Z,98695.00
2023-04-05T23:48:00.380Z,98696.44
2023-04-05T23:50:38.136Z,98689.44
2023-04-05T23:55:53.613Z,98684.03
2023-04-05T23:58:24.836Z,98680.13
